createdAt,value
2017-08-04T15:45:35.743Z,27.20
2017-08-04T15:48:02.707Z,27.10
2017-08-04T15:50:29.891Z,27.00
2017-08-04T15:52:57.294Z,26.90
2017-08-04T15:55:24.638Z,26.80
2017-08-04T15:57:51.557Z,26.80
2017-08-04T16:00:18.848Z,26.70
2017-08-04T16:02:45.644Z,26.70
2017-08-04T16:05:13.041Z,26.60
2017-08-04T16:07:39.959Z,26.60
2017-08-04T16:10:06.784Z,26.50
2017-08-04T16:12:34.179Z,26.40
2017-08-04T16:15:01.136Z,26.40
2017-08-04T16:17:28.534Z,26.30
2017-08-04T16:19:56.514Z,26.30
2017-08-04T16:22:23.389Z,26.40
2017-08-04T16:24:50.333Z,26.40
2017-08-04T16:27:17.449Z,26.40
2017-08-04T16:29:44.778Z,26.40
2017-08-04T16:32:12.283Z,26.40
2017-08-04T16:34:39.221Z,26.30
2017-08-04T16:37:06.438Z,26.30
2017-08-04T16:39:33.342Z,26.30
2017-08-04T16:42:00.711Z,26.30
2017-08-04T16:44:28.167Z,26.20
2017-08-04T16:46:55.155Z,26.20
2017-08-04T16:49:24.706Z,26.00
2017-08-04T16:51:51.788Z,26.00
2017-08-04T16:54:19.114Z,26.00
2017-08-04T16:56:46.199Z,26.00
2017-08-04T16:59:13.944Z,25.90
2017-08-04T17:01:41.708Z,25.90
2017-08-04T17:04:08.772Z,25.90
2017-08-04T17:06:35.759Z,25.90
2017-08-04T17:09:02.887Z,25.80
2017-08-04T17:11:30.007Z,25.80
2017-08-04T17:14:02.095Z,25.80
2017-08-04T17:16:30.120Z,25.70
2017-08-04T17:18:57.080Z,25.70
2017-08-04T17:21:24.520Z,25.70
2017-08-04T17:23:51.519Z,25.70
2017-08-04T17:26:18.502Z,25.60
2017-08-04T17:28:45.503Z,25.50
2017-08-04T17:31:12.575Z,25.50
2017-08-04T17:33:39.593Z,25.50
2017-08-04T17:36:06.690Z,25.40
2017-08-04T17:38:33.652Z,25.30
2017-08-04T17:41:00.671Z,25.30
2017-08-04T17:43:28.167Z,25.10
2017-08-04T17:45:55.133Z,25.00
2017-08-04T17:48:22.100Z,25.00
2017-08-04T17:50:49.061Z,25.10
2017-08-04T17:53:15.976Z,25.00
2017-08-04T17:55:43.297Z,25.00
2017-08-04T17:58:22.656Z,25.00
2017-08-04T18:00:50.001Z,25.00
2017-08-04T18:03:18.388Z,25.00
2017-08-04T18:05:46.414Z,25.00
2017-08-04T18:08:13.962Z,25.00
2017-08-04T18:10:42.416Z,25.10
2017-08-04T18:13:10.919Z,25.00
2017-08-04T18:15:38.032Z,25.00
2017-08-04T18:18:05.674Z,24.90
2017-08-04T18:20:33.432Z,24.80
2017-08-04T18:23:00.500Z,24.80
2017-08-04T18:25:27.986Z,24.80
2017-08-04T18:27:55.704Z,24.80
2017-08-04T18:30:23.238Z,24.80
2017-08-04T18:32:51.383Z,24.70
2017-08-04T18:35:18.709Z,24.60
2017-08-04T18:37:47.118Z,24.60
2017-08-04T18:40:17.553Z,24.60
2017-08-04T18:42:46.643Z,24.60
2017-08-04T18:45:13.975Z,24.50
2017-08-04T18:47:42.906Z,24.50
2017-08-04T18:50:10.282Z,24.40
2017-08-04T18:52:37.648Z,24.40
2017-08-04T18:55:04.685Z,24.30
2017-08-04T18:57:31.833Z,24.30
2017-08-04T18:59:59.243Z,24.30
2017-08-04T19:02:26.196Z,24.20
2017-08-04T19:04:53.445Z,24.20
2017-08-04T19:07:21.769Z,24.20
2017-08-04T19:09:48.840Z,24.10
2017-08-04T19:12:16.437Z,24.10
2017-08-04T19:14:43.830Z,24.00
2017-08-04T19:17:10.992Z,24.00
2017-08-04T19:19:38.515Z,24.00
2017-08-04T19:22:05.825Z,24.00
2017-08-04T19:24:32.861Z,24.20
2017-08-04T19:27:00.624Z,24.00
2017-08-04T19:29:27.875Z,24.00
2017-08-04T19:31:54.756Z,23.90
2017-08-04T19:34:22.068Z,23.90
2017-08-04T19:36:49.558Z,23.90
2017-08-04T19:39:16.462Z,23.90
2017-08-04T19:41:43.597Z,23.90
2017-08-04T19:44:10.953Z,24.00
2017-08-04T19:46:38.359Z,23.90
2017-08-04T19:49:05.163Z,23.90
2017-08-04T19:51:32.104Z,23.90
2017-08-04T19:53:59.425Z,23.90
2017-08-04T19:56:26.968Z,23.90
2017-08-04T19:58:53.968Z,23.90
2017-08-04T20:01:21.182Z,23.90
2017-08-04T20:03:49.268Z,23.90
2017-08-04T20:06:16.626Z,23.90
2017-08-04T20:08:43.821Z,23.90
2017-08-04T20:11:11.112Z,23.90
2017-08-04T20:13:41.190Z,23.90
2017-08-04T20:16:09.059Z,24.00
2017-08-04T20:18:35.962Z,24.00
2017-08-04T20:21:02.800Z,23.90
2017-08-04T20:23:31.252Z,23.90
2017-08-04T20:25:58.220Z,23.80
2017-08-04T20:28:25.233Z,23.90
2017-08-04T20:30:53.551Z,23.80
2017-08-04T20:33:20.498Z,23.70
2017-08-04T20:35:47.478Z,23.80
2017-08-04T20:38:15.492Z,23.80
2017-08-04T20:40:43.016Z,23.60
2017-08-04T20:43:10.506Z,23.60
2017-08-04T20:45:37.613Z,23.60
2017-08-04T20:48:04.695Z,23.50
2017-08-04T20:50:31.668Z,23.50
2017-08-04T20:52:58.712Z,23.40
2017-08-04T20:55:25.761Z,23.40
2017-08-04T20:57:52.792Z,23.20
2017-08-04T21:00:19.972Z,23.20
2017-08-04T21:02:46.889Z,23.10
2017-08-04T21:05:13.975Z,23.10
2017-08-04T21:07:41.006Z,23.10
2017-08-04T21:10:08.136Z,23.00
2017-08-04T21:12:36.322Z,22.90
2017-08-04T21:15:03.289Z,22.90
2017-08-04T21:17:30.295Z,23.00
2017-08-04T21:19:57.232Z,23.00
2017-08-04T21:22:24.016Z,23.10
2017-08-04T21:24:50.955Z,23.10
2017-08-04T21:27:17.983Z,23.00
2017-08-04T21:29:44.748Z,22.90
2017-08-04T21:32:11.768Z,23.00
2017-08-04T21:34:38.810Z,23.00
2017-08-04T21:37:05.926Z,22.90
2017-08-04T21:39:34.197Z,23.00
2017-08-04T21:42:01.004Z,22.90
2017-08-04T21:44:29.200Z,22.90
2017-08-04T21:46:56.706Z,22.90
2017-08-04T21:49:24.070Z,22.90
2017-08-04T21:51:50.951Z,22.90
2017-08-04T21:54:18.301Z,22.90
2017-08-04T21:56:45.603Z,22.90
2017-08-04T21:59:12.845Z,22.90
2017-08-04T22:01:40.400Z,22.80
2017-08-04T22:04:07.282Z,22.70
2017-08-04T22:06:34.515Z,22.80
2017-08-04T22:09:01.858Z,22.70
2017-08-04T22:11:29.842Z,22.70
2017-08-04T22:13:57.615Z,22.70
2017-08-04T22:16:25.231Z,22.70
2017-08-04T22:18:53.440Z,22.60
2017-08-04T22:21:21.399Z,22.60
2017-08-04T22:23:49.437Z,22.50
2017-08-04T22:26:17.310Z,22.50
2017-08-04T22:28:44.185Z,22.40
2017-08-04T22:31:11.081Z,22.30
2017-08-04T22:33:38.784Z,22.30
2017-08-04T22:36:05.581Z,22.20
2017-08-04T22:38:33.056Z,22.20
2017-08-04T22:41:12.075Z,22.20
2017-08-04T22:43:38.857Z,22.20
2017-08-04T22:46:05.634Z,22.10
2017-08-04T22:48:32.522Z,22.00
2017-08-04T22:50:59.916Z,22.00
2017-08-04T22:53:26.678Z,22.00
2017-08-04T22:55:53.784Z,21.90
2017-08-04T22:58:22.358Z,21.90
2017-08-04T23:00:49.151Z,21.90
2017-08-04T23:03:16.370Z,21.80
2017-08-04T23:05:43.180Z,21.80
2017-08-04T23:08:09.989Z,21.80
2017-08-04T23:10:37.228Z,21.70
2017-08-04T23:13:04.037Z,21.70
2017-08-04T23:15:30.906Z,21.60
2017-08-04T23:17:57.827Z,21.60
2017-08-04T23:20:24.592Z,21.60
2017-08-04T23:22:51.900Z,21.50
2017-08-04T23:25:18.761Z,21.50
2017-08-04T23:27:45.584Z,21.50
2017-08-04T23:30:12.791Z,21.50
2017-08-04T23:32:40.066Z,21.40
2017-08-04T23:35:07.528Z,21.40
2017-08-04T23:37:34.984Z,21.40
2017-08-04T23:40:01.982Z,21.30
2017-08-04T23:42:29.136Z,21.30
2017-08-04T23:44:56.478Z,21.30
2017-08-04T23:47:23.265Z,21.30
2017-08-04T23:49:50.297Z,21.20
2017-08-04T23:52:17.535Z,21.20
2017-08-04T23:54:44.335Z,21.10
2017-08-04T23:57:11.354Z,21.10
2017-08-04T23:59:38.112Z,21.00
